Down Up Stop Top

TXC259
There are no active watches, warnings or advisories

Record high temperature 126.3°F Record low temperature 13.3°F Record high gust 49.5 mph Record high average 32.4 mph Record daily rain 4.23 in. Record low windchill 4.3°F Record high barometer 30.667 in. Record low barometer 28.496 in.
Daily high pressure 30.165 in. Daily low pressure 29.988 in. Daily low windchill 23.7°F Daily high heat index 30.0°F Daily high gust speed 9.4 mph SSE Daily high average speed 6.2 mph ESE
Welfare-Texas Weather
LAST READING AT TIME: 13:20 DATE: April 05 2015, time of next update: 13:25
Current WeatherDry Current Temperature 30.0°F (-1.1°C), Apparent temp 24.0°F
Maximum Temperature (since midnight)30.0°F at: 00:00 Minimum Temperature (since midnight)30.0°F at: 00:00
Average windspeed (ten minute)3.4 mph Wind Direction (ten minute)SE (140°)
Windchill Temperature 25.8°F Maximum Gust (last hour)9.4 mph at: 13:10
Maximum Gust (since midnight)9.4 mph at: 13:10 Maximum 1 minute average (since midnight)6.2 mph at: 00:02
Rainfall (last hour)0.00 in. (0.0 mm) Rainfall (since midnight)0.00 in. (0.0 mm) ---
Rainfall This month 0.00 in. (0.0 mm) Rainfall To date this year 4.94 in. (125.5 mm)
Maximum rain per minute (last hour)0.00 in/min Maximum rain per hour (last 6 hours)0.00 in/hour
Yesterdays rainfall 0.00 in DewPoint 14.1°F (Wet Bulb :25.5°F )
Humidity 51 %, Humidex 22.9°F Barometer corrected to msl29.988 in. (1015.5 hPa)
Pressure change -0.03 in. (last hour) Trend (last hour)STEADY
Pressure change (last 12 hours)-0.15 in Pressure change (last 6 hours)-0.03 in

This page is updated from recent data collected by a WMR200 weather station Use the Reload or Refresh facility on your browser to retrieve the latest data.


Click here for the last 24 hour graph
Click here for the last 48 hour graph
Click here for the last 72 hour graph
Click here for the month to date graph


Weather report/warning/Metars

SAN ANTONIO INTERNATIONAL  AIRPORT , TX, United States (KSAT) 29-32N 098-28W 243M
Apr 05, 2015 - 12:51 PM EDT / 2015.04.05 1651 UTC
Wind: from the ENE (070 degrees) at 3 MPH (3 KT):0
Visibility: 4 mile(s):0
Sky conditions: overcast
Weather: mist
Precipitation last hour: A trace
Temperature: 63.0 F (17.2 C)
Dew Point: 60.1 F (15.6 C)
Relative Humidity: 90%
Pressure (altimeter): 30.01 in. Hg (1016 hPa)
ob: KSAT 051651Z 07003KT 4SM BR OVC005 17/16 A3001 RMK AO2 DZE18 SLP151 P0000 T01720156
cycle: 17
NEW BRAUNFELS MUNICIPAL AIRPORT, TX, United States (KBAZ) 29-43N 98-03W 195M
Apr 05, 2015 - 01:01 PM EDT / 2015.04.05 1701 UTC
Wind: from the NE (050 degrees) at 7 MPH (6 KT):0
Visibility: 3/4 mile(s):0
Sky conditions: overcast
Weather: mist
Temperature: 63.0 F (17.2 C)
Dew Point: 61.0 F (16.1 C)
Relative Humidity: 93%
Pressure (altimeter): 30.01 in. Hg (1016 hPa)
ob: KBAZ 051701Z 05006KT 3/4SM BR OVC003 17/16 A3001 RMK AO2 T01720161
cycle: 17
Kerrville, Kerrville Municipal Airport/Louis Schreiner Field, TX, United States (KERV) 29-58N 099-05W
Apr 05, 2015 - 01:35 PM EDT / 2015.04.05 1735 UTC
Wind: from the SSE (160 degrees) at 5 MPH (4 KT):0
Visibility: 5 mile(s):0
Weather: mist
Temperature: 59.5 F (15.3 C)
Dew Point: 58.3 F (14.6 C)
Relative Humidity: 95%
Pressure (altimeter): 30.01 in. Hg (1016 hPa)
ob: KERV 051735Z AUTO 16004KT 5SM BR 15/15 A3001 RMK AO2 T01530146
cycle: 17
BANGOR INT'L AIRPORT, ME, United States (KBGR) 44-48N 068-49W 57M
Apr 05, 2015 - 12:53 PM EDT / 2015.04.05 1653 UTC
Wind: from the W (270 degrees) at 13 MPH (11 KT) gusting to 23 MPH (20 KT):0
Visibility: 9 mile(s):0
Sky conditions: mostly cloudy
Precipitation last hour: A trace
Temperature: 33.1 F (0.6 C)
Windchill: 23 F (-5 C):1
Dew Point: 21.0 F (-6.1 C)
Relative Humidity: 60%
Pressure (altimeter): 29.97 in. Hg (1014 hPa)
ob: KBGR 051653Z 27011G20KT 9SM FEW017 BKN031 BKN070 01/M06 A2997 RMK AO2 PK WND 32030/1625 SNB00E48 SLP151 P0000 T00061061
cycle: 17



The data is logged at two minute intervals, but there is data recorded every minute.

Use the RELOAD facility on your browser to retrieve the latest data.

Click here for a daily update of the averages/extremes to date for the month


Created by "Weather Display" software version 10.37R Build 23 at this start time/date 06:34 6/14/2014